RJTT/HND METAR and TAF weather

Enter ICAO airport designator
Station Type Date Time Source
RJTT METAR 2020/09/21 06:00 UTC NOAA

RJTT 210600Z 07006KT 9999 FEW020 SCT/// 24/18 Q1014 NOSIG


Station Type Date Time Source
RJTT Decoded METAR 2020/09/21 06:00 UTC NOAA

Tokyo International Airport, Japan (RJTT) 35-33N 139-47E 8M
Sep 21, 2020 - 02:00 AM EDT / 2020.09.21 0600 UTC
Wind: from the ENE (070 degrees) at 7 MPH (6 KT):0
Visibility: greater than 7 mile(s):0
Sky conditions: partly cloudy
Temperature: 75 F (24 C)
Dew Point: 64 F (18 C)
Relative Humidity: 69%
Pressure (altimeter): 29.94 in. Hg (1014 hPa)
ob: RJTT 210600Z 07006KT 9999 FEW020 SCT/// 24/18 Q1014 NOSIG
cycle: 6

Station Type Date Time Source
RJTT TAF 2020/09/21 06:30 UTC NOAA

TAF RJTT 210505Z 2106/2212 10010KT 9999 FEW030
BECMG 2111/2113 04012KT

Example: see airport list